sensor_id;sensor_type;location;lat;lon;timestamp;P1;durP1;ratioP1;P2;durP2;ratioP2
54959;SDS011;40860;51.710;8.736;2024-03-06T00:01:37;30.92;;;21.08;;
54959;SDS011;40860;51.710;8.736;2024-03-06T00:05:44;27.90;;;18.67;;
54959;SDS011;40860;51.710;8.736;2024-03-06T00:09:48;27.77;;;18.70;;
54959;SDS011;40860;51.710;8.736;2024-03-06T00:13:51;28.90;;;19.73;;
54959;SDS011;40860;51.710;8.736;2024-03-06T00:17:54;31.38;;;21.33;;
54959;SDS011;40860;51.710;8.736;2024-03-06T00:21:59;29.90;;;20.88;;
54959;SDS011;40860;51.710;8.736;2024-03-06T00:26:05;31.17;;;20.02;;
54959;SDS011;40860;51.710;8.736;2024-03-06T00:30:08;32.30;;;20.88;;
54959;SDS011;40860;51.710;8.736;2024-03-06T00:34:12;33.92;;;22.35;;
54959;SDS011;40860;51.710;8.736;2024-03-06T00:38:16;37.60;;;23.42;;
54959;SDS011;40860;51.710;8.736;2024-03-06T00:42:20;33.60;;;23.15;;
54959;SDS011;40860;51.710;8.736;2024-03-06T00:46:23;35.20;;;22.98;;
54959;SDS011;40860;51.710;8.736;2024-03-06T00:50:26;34.55;;;22.58;;
54959;SDS011;40860;51.710;8.736;2024-03-06T00:54:29;39.53;;;23.55;;
54959;SDS011;40860;51.710;8.736;2024-03-06T00:58:33;35.15;;;23.05;;
54959;SDS011;40860;51.710;8.736;2024-03-06T01:02:36;38.35;;;23.55;;
54959;SDS011;40860;51.710;8.736;2024-03-06T01:06:39;33.38;;;22.13;;
54959;SDS011;40860;51.710;8.736;2024-03-06T01:10:42;36.78;;;22.05;;
54959;SDS011;40860;51.710;8.736;2024-03-06T01:14:46;35.22;;;21.45;;
54959;SDS011;40860;51.710;8.736;2024-03-06T01:18:49;34.30;;;22.58;;
54959;SDS011;40860;51.710;8.736;2024-03-06T01:22:56;31.67;;;20.50;;
54959;SDS011;40860;51.710;8.736;2024-03-06T01:27:00;32.60;;;21.35;;
54959;SDS011;40860;51.710;8.736;2024-03-06T01:31:05;30.25;;;19.27;;
54959;SDS011;40860;51.710;8.736;2024-03-06T01:35:09;30.20;;;19.63;;
54959;SDS011;40860;51.710;8.736;2024-03-06T01:39:12;35.85;;;21.50;;
54959;SDS011;40860;51.710;8.736;2024-03-06T01:43:24;31.85;;;19.27;;
54959;SDS011;40860;51.710;8.736;2024-03-06T01:47:29;32.05;;;20.02;;
54959;SDS011;40860;51.710;8.736;2024-03-06T01:51:32;30.55;;;19.90;;
54959;SDS011;40860;51.710;8.736;2024-03-06T01:55:35;30.48;;;19.38;;
54959;SDS011;40860;51.710;8.736;2024-03-06T01:59:38;32.20;;;19.90;;
54959;SDS011;40860;51.710;8.736;2024-03-06T02:03:44;33.53;;;21.33;;
54959;SDS011;40860;51.710;8.736;2024-03-06T02:07:47;32.65;;;21.63;;
54959;SDS011;40860;51.710;8.736;2024-03-06T02:11:51;36.85;;;22.60;;
54959;SDS011;40860;51.710;8.736;2024-03-06T02:15:55;35.75;;;21.92;;
54959;SDS011;40860;51.710;8.736;2024-03-06T02:19:59;34.97;;;21.80;;
54959;SDS011;40860;51.710;8.736;2024-03-06T02:24:03;37.90;;;23.48;;
54959;SDS011;40860;51.710;8.736;2024-03-06T02:28:06;35.88;;;23.23;;
54959;SDS011;40860;51.710;8.736;2024-03-06T02:32:11;33.08;;;21.58;;
54959;SDS011;40860;51.710;8.736;2024-03-06T02:36:15;37.63;;;23.00;;
54959;SDS011;40860;51.710;8.736;2024-03-06T02:40:19;38.10;;;22.67;;
54959;SDS011;40860;51.710;8.736;2024-03-06T02:44:22;37.05;;;22.85;;
54959;SDS011;40860;51.710;8.736;2024-03-06T02:48:25;36.78;;;22.33;;
54959;SDS011;40860;51.710;8.736;2024-03-06T02:52:28;36.00;;;21.48;;
54959;SDS011;40860;51.710;8.736;2024-03-06T02:56:32;34.67;;;22.33;;
54959;SDS011;40860;51.710;8.736;2024-03-06T03:00:35;37.55;;;23.05;;
54959;SDS011;40860;51.710;8.736;2024-03-06T03:04:38;33.85;;;22.55;;
54959;SDS011;40860;51.710;8.736;2024-03-06T03:08:41;35.75;;;22.20;;
54959;SDS011;40860;51.710;8.736;2024-03-06T03:12:45;38.92;;;24.10;;
54959;SDS011;40860;51.710;8.736;2024-03-06T03:16:48;35.00;;;22.52;;
54959;SDS011;40860;51.710;8.736;2024-03-06T03:20:51;33.88;;;22.27;;
54959;SDS011;40860;51.710;8.736;2024-03-06T03:24:54;38.05;;;23.52;;
54959;SDS011;40860;51.710;8.736;2024-03-06T03:29:09;35.08;;;23.10;;
54959;SDS011;40860;51.710;8.736;2024-03-06T03:33:12;37.63;;;24.33;;
54959;SDS011;40860;51.710;8.736;2024-03-06T03:37:15;37.83;;;23.52;;
54959;SDS011;40860;51.710;8.736;2024-03-06T03:41:18;38.30;;;23.27;;
54959;SDS011;40860;51.710;8.736;2024-03-06T03:45:25;42.03;;;26.00;;
54959;SDS011;40860;51.710;8.736;2024-03-06T03:49:27;41.42;;;25.55;;
54959;SDS011;40860;51.710;8.736;2024-03-06T03:53:30;47.13;;;28.05;;
54959;SDS011;40860;51.710;8.736;2024-03-06T03:57:33;43.67;;;26.55;;
54959;SDS011;40860;51.710;8.736;2024-03-06T04:01:37;45.97;;;28.02;;
54959;SDS011;40860;51.710;8.736;2024-03-06T04:05:40;46.42;;;28.00;;
54959;SDS011;40860;51.710;8.736;2024-03-06T04:09:43;50.38;;;30.02;;
54959;SDS011;40860;51.710;8.736;2024-03-06T04:13:46;50.58;;;29.90;;
54959;SDS011;40860;51.710;8.736;2024-03-06T04:17:50;54.88;;;32.72;;
54959;SDS011;40860;51.710;8.736;2024-03-06T04:21:53;52.45;;;31.60;;
54959;SDS011;40860;51.710;8.736;2024-03-06T04:25:56;48.58;;;30.25;;
54959;SDS011;40860;51.710;8.736;2024-03-06T04:29:59;51.78;;;31.42;;
54959;SDS011;40860;51.710;8.736;2024-03-06T04:34:03;48.35;;;29.95;;
54959;SDS011;40860;51.710;8.736;2024-03-06T04:38:06;51.63;;;31.20;;
54959;SDS011;40860;51.710;8.736;2024-03-06T04:42:09;51.55;;;32.58;;
54959;SDS011;40860;51.710;8.736;2024-03-06T04:46:12;54.42;;;33.33;;
54959;SDS011;40860;51.710;8.736;2024-03-06T04:50:17;54.25;;;33.00;;
54959;SDS011;40860;51.710;8.736;2024-03-06T04:54:20;57.13;;;32.92;;
54959;SDS011;40860;51.710;8.736;2024-03-06T04:58:23;56.58;;;32.28;;
54959;SDS011;40860;51.710;8.736;2024-03-06T05:02:26;50.35;;;31.88;;
54959;SDS011;40860;51.710;8.736;2024-03-06T05:06:30;52.65;;;30.75;;
54959;SDS011;40860;51.710;8.736;2024-03-06T05:10:51;53.33;;;31.02;;
54959;SDS011;40860;51.710;8.736;2024-03-06T05:15:11;51.35;;;31.50;;
54959;SDS011;40860;51.710;8.736;2024-03-06T05:19:32;47.05;;;29.83;;
54959;SDS011;40860;51.710;8.736;2024-03-06T05:23:54;59.40;;;33.10;;
54959;SDS011;40860;51.710;8.736;2024-03-06T05:28:16;56.55;;;33.08;;
54959;SDS011;40860;51.710;8.736;2024-03-06T05:32:36;57.75;;;33.28;;
54959;SDS011;40860;51.710;8.736;2024-03-06T05:36:57;56.03;;;32.85;;
54959;SDS011;40860;51.710;8.736;2024-03-06T05:41:18;52.28;;;31.10;;
54959;SDS011;40860;51.710;8.736;2024-03-06T05:45:39;50.55;;;31.45;;
54959;SDS011;40860;51.710;8.736;2024-03-06T05:50:00;54.65;;;32.88;;
54959;SDS011;40860;51.710;8.736;2024-03-06T05:54:23;47.95;;;29.85;;
54959;SDS011;40860;51.710;8.736;2024-03-06T05:58:45;55.45;;;32.17;;
54959;SDS011;40860;51.710;8.736;2024-03-06T06:02:48;50.97;;;29.55;;
54959;SDS011;40860;51.710;8.736;2024-03-06T06:06:51;53.55;;;31.08;;
54959;SDS011;40860;51.710;8.736;2024-03-06T06:10:54;53.80;;;30.63;;
54959;SDS011;40860;51.710;8.736;2024-03-06T06:14:59;54.65;;;30.63;;
54959;SDS011;40860;51.710;8.736;2024-03-06T06:19:03;50.53;;;29.30;;
54959;SDS011;40860;51.710;8.736;2024-03-06T06:23:06;54.75;;;31.35;;
54959;SDS011;40860;51.710;8.736;2024-03-06T06:27:10;56.30;;;31.75;;
54959;SDS011;40860;51.710;8.736;2024-03-06T06:31:14;53.70;;;30.65;;
54959;SDS011;40860;51.710;8.736;2024-03-06T06:35:17;52.97;;;31.17;;
54959;SDS011;40860;51.710;8.736;2024-03-06T06:39:27;54.20;;;31.50;;
54959;SDS011;40860;51.710;8.736;2024-03-06T06:43:29;54.88;;;30.88;;
54959;SDS011;40860;51.710;8.736;2024-03-06T06:47:33;55.25;;;31.02;;
54959;SDS011;40860;51.710;8.736;2024-03-06T06:51:37;51.22;;;30.98;;
54959;SDS011;40860;51.710;8.736;2024-03-06T06:55:39;49.45;;;29.73;;
54959;SDS011;40860;51.710;8.736;2024-03-06T06:59:42;50.40;;;30.05;;
54959;SDS011;40860;51.710;8.736;2024-03-06T07:03:47;50.28;;;29.33;;
54959;SDS011;40860;51.710;8.736;2024-03-06T07:07:50;50.65;;;29.42;;
54959;SDS011;40860;51.710;8.736;2024-03-06T07:11:55;47.88;;;29.38;;
54959;SDS011;40860;51.710;8.736;2024-03-06T07:15:58;49.42;;;29.42;;
54959;SDS011;40860;51.710;8.736;2024-03-06T07:20:02;48.65;;;29.30;;
54959;SDS011;40860;51.710;8.736;2024-03-06T07:24:07;46.33;;;28.83;;
54959;SDS011;40860;51.710;8.736;2024-03-06T07:28:11;49.22;;;29.55;;
54959;SDS011;40860;51.710;8.736;2024-03-06T07:32:14;43.97;;;28.05;;
54959;SDS011;40860;51.710;8.736;2024-03-06T07:36:18;48.35;;;29.05;;
54959;SDS011;40860;51.710;8.736;2024-03-06T07:40:21;45.70;;;27.65;;
54959;SDS011;40860;51.710;8.736;2024-03-06T07:44:24;44.67;;;28.63;;
54959;SDS011;40860;51.710;8.736;2024-03-06T07:48:27;44.20;;;28.23;;
54959;SDS011;40860;51.710;8.736;2024-03-06T07:52:31;43.58;;;27.42;;
54959;SDS011;40860;51.710;8.736;2024-03-06T07:56:34;44.28;;;28.30;;
54959;SDS011;40860;51.710;8.736;2024-03-06T08:00:37;48.08;;;29.40;;
54959;SDS011;40860;51.710;8.736;2024-03-06T08:04:40;48.78;;;28.10;;
54959;SDS011;40860;51.710;8.736;2024-03-06T08:08:44;51.92;;;29.98;;
54959;SDS011;40860;51.710;8.736;2024-03-06T08:12:48;47.60;;;29.65;;
54959;SDS011;40860;51.710;8.736;2024-03-06T08:16:51;47.55;;;29.23;;
54959;SDS011;40860;51.710;8.736;2024-03-06T08:20:54;46.20;;;29.52;;
54959;SDS011;40860;51.710;8.736;2024-03-06T08:24:58;45.50;;;28.95;;
54959;SDS011;40860;51.710;8.736;2024-03-06T08:29:01;48.92;;;29.83;;
54959;SDS011;40860;51.710;8.736;2024-03-06T08:33:04;47.80;;;30.70;;
54959;SDS011;40860;51.710;8.736;2024-03-06T08:37:07;51.75;;;30.58;;
54959;SDS011;40860;51.710;8.736;2024-03-06T08:41:11;51.53;;;29.65;;
54959;SDS011;40860;51.710;8.736;2024-03-06T08:45:14;53.50;;;30.27;;
54959;SDS011;40860;51.710;8.736;2024-03-06T08:49:18;49.83;;;28.35;;
54959;SDS011;40860;51.710;8.736;2024-03-06T08:53:20;48.90;;;29.45;;
54959;SDS011;40860;51.710;8.736;2024-03-06T08:57:25;45.70;;;28.73;;
54959;SDS011;40860;51.710;8.736;2024-03-06T09:01:29;42.85;;;28.67;;
54959;SDS011;40860;51.710;8.736;2024-03-06T09:05:32;40.95;;;28.10;;
54959;SDS011;40860;51.710;8.736;2024-03-06T09:09:36;45.00;;;29.17;;
54959;SDS011;40860;51.710;8.736;2024-03-06T09:13:40;43.05;;;29.30;;
54959;SDS011;40860;51.710;8.736;2024-03-06T09:17:43;43.35;;;29.00;;
54959;SDS011;40860;51.710;8.736;2024-03-06T09:21:47;45.25;;;29.48;;
54959;SDS011;40860;51.710;8.736;2024-03-06T09:25:51;48.05;;;30.17;;
54959;SDS011;40860;51.710;8.736;2024-03-06T09:29:56;45.78;;;30.75;;
54959;SDS011;40860;51.710;8.736;2024-03-06T09:33:59;48.10;;;31.98;;
54959;SDS011;40860;51.710;8.736;2024-03-06T09:38:02;46.97;;;30.67;;
54959;SDS011;40860;51.710;8.736;2024-03-06T09:42:05;46.83;;;30.42;;
54959;SDS011;40860;51.710;8.736;2024-03-06T09:46:10;49.42;;;31.73;;
54959;SDS011;40860;51.710;8.736;2024-03-06T09:50:13;52.60;;;32.35;;
54959;SDS011;40860;51.710;8.736;2024-03-06T09:54:21;51.92;;;32.65;;
54959;SDS011;40860;51.710;8.736;2024-03-06T09:58:27;51.72;;;33.85;;
54959;SDS011;40860;51.710;8.736;2024-03-06T10:02:38;51.22;;;32.95;;
54959;SDS011;40860;51.710;8.736;2024-03-06T10:06:43;52.47;;;33.65;;
54959;SDS011;40860;51.710;8.736;2024-03-06T10:10:48;52.92;;;33.20;;
54959;SDS011;40860;51.710;8.736;2024-03-06T10:14:52;55.88;;;35.15;;
54959;SDS011;40860;51.710;8.736;2024-03-06T10:18:56;53.50;;;33.60;;
54959;SDS011;40860;51.710;8.736;2024-03-06T10:22:59;55.03;;;35.28;;
54959;SDS011;40860;51.710;8.736;2024-03-06T10:27:02;52.03;;;33.65;;
54959;SDS011;40860;51.710;8.736;2024-03-06T10:31:05;52.00;;;34.58;;
54959;SDS011;40860;51.710;8.736;2024-03-06T10:35:18;54.13;;;33.72;;
54959;SDS011;40860;51.710;8.736;2024-03-06T10:39:22;52.35;;;33.65;;
54959;SDS011;40860;51.710;8.736;2024-03-06T10:43:25;54.95;;;34.67;;
54959;SDS011;40860;51.710;8.736;2024-03-06T10:47:29;54.67;;;34.95;;
54959;SDS011;40860;51.710;8.736;2024-03-06T10:51:34;50.83;;;33.33;;
54959;SDS011;40860;51.710;8.736;2024-03-06T10:55:38;54.63;;;35.05;;
54959;SDS011;40860;51.710;8.736;2024-03-06T10:59:41;51.92;;;34.40;;
54959;SDS011;40860;51.710;8.736;2024-03-06T11:03:45;51.55;;;34.25;;
54959;SDS011;40860;51.710;8.736;2024-03-06T11:07:51;53.38;;;34.15;;
54959;SDS011;40860;51.710;8.736;2024-03-06T11:11:54;49.58;;;32.83;;
54959;SDS011;40860;51.710;8.736;2024-03-06T11:15:57;51.20;;;34.00;;
54959;SDS011;40860;51.710;8.736;2024-03-06T11:20:15;46.67;;;31.55;;
54959;SDS011;40860;51.710;8.736;2024-03-06T11:24:21;43.38;;;31.13;;
54959;SDS011;40860;51.710;8.736;2024-03-06T11:28:25;41.55;;;28.52;;
54959;SDS011;40860;51.710;8.736;2024-03-06T11:32:29;48.08;;;31.40;;
54959;SDS011;40860;51.710;8.736;2024-03-06T11:36:33;49.15;;;33.00;;
54959;SDS011;40860;51.710;8.736;2024-03-06T11:40:43;46.97;;;31.38;;
54959;SDS011;40860;51.710;8.736;2024-03-06T11:44:53;45.40;;;29.10;;
54959;SDS011;40860;51.710;8.736;2024-03-06T11:48:58;44.47;;;30.77;;
54959;SDS011;40860;51.710;8.736;2024-03-06T11:53:02;46.67;;;30.25;;
54959;SDS011;40860;51.710;8.736;2024-03-06T11:57:10;44.85;;;30.25;;
54959;SDS011;40860;51.710;8.736;2024-03-06T12:01:17;46.72;;;30.33;;
54959;SDS011;40860;51.710;8.736;2024-03-06T12:05:21;45.88;;;29.83;;
54959;SDS011;40860;51.710;8.736;2024-03-06T12:09:26;40.63;;;27.70;;
54959;SDS011;40860;51.710;8.736;2024-03-06T12:13:30;45.75;;;30.15;;
54959;SDS011;40860;51.710;8.736;2024-03-06T12:17:33;44.90;;;29.15;;
54959;SDS011;40860;51.710;8.736;2024-03-06T12:21:47;43.22;;;28.42;;
54959;SDS011;40860;51.710;8.736;2024-03-06T12:26:01;48.50;;;29.25;;
54959;SDS011;40860;51.710;8.736;2024-03-06T12:30:11;43.90;;;29.17;;
54959;SDS011;40860;51.710;8.736;2024-03-06T12:34:15;43.92;;;29.70;;
54959;SDS011;40860;51.710;8.736;2024-03-06T12:38:18;43.70;;;27.02;;
54959;SDS011;40860;51.710;8.736;2024-03-06T12:42:21;39.47;;;26.20;;
54959;SDS011;40860;51.710;8.736;2024-03-06T12:46:26;37.10;;;25.00;;
54959;SDS011;40860;51.710;8.736;2024-03-06T12:50:31;38.20;;;24.48;;
54959;SDS011;40860;51.710;8.736;2024-03-06T12:54:34;38.33;;;25.50;;
54959;SDS011;40860;51.710;8.736;2024-03-06T12:58:37;39.17;;;24.15;;
54959;SDS011;40860;51.710;8.736;2024-03-06T13:02:41;38.22;;;23.60;;
54959;SDS011;40860;51.710;8.736;2024-03-06T13:06:45;39.55;;;24.70;;
54959;SDS011;40860;51.710;8.736;2024-03-06T13:10:48;38.97;;;25.48;;
54959;SDS011;40860;51.710;8.736;2024-03-06T13:14:51;38.47;;;24.30;;
54959;SDS011;40860;51.710;8.736;2024-03-06T13:18:56;35.33;;;23.15;;
54959;SDS011;40860;51.710;8.736;2024-03-06T13:23:01;34.80;;;23.90;;
54959;SDS011;40860;51.710;8.736;2024-03-06T13:27:05;36.63;;;23.38;;
54959;SDS011;40860;51.710;8.736;2024-03-06T13:31:08;32.05;;;22.17;;
54959;SDS011;40860;51.710;8.736;2024-03-06T13:35:12;34.05;;;22.13;;
54959;SDS011;40860;51.710;8.736;2024-03-06T13:39:16;31.77;;;21.50;;
54959;SDS011;40860;51.710;8.736;2024-03-06T13:43:19;32.80;;;21.52;;
54959;SDS011;40860;51.710;8.736;2024-03-06T13:47:24;30.58;;;20.30;;
54959;SDS011;40860;51.710;8.736;2024-03-06T13:51:29;33.60;;;22.30;;
54959;SDS011;40860;51.710;8.736;2024-03-06T13:55:31;35.17;;;23.60;;
54959;SDS011;40860;51.710;8.736;2024-03-06T13:59:35;33.33;;;22.77;;
54959;SDS011;40860;51.710;8.736;2024-03-06T14:03:39;35.17;;;23.02;;
54959;SDS011;40860;51.710;8.736;2024-03-06T14:07:44;32.55;;;22.63;;
54959;SDS011;40860;51.710;8.736;2024-03-06T14:11:46;30.92;;;22.50;;
54959;SDS011;40860;51.710;8.736;2024-03-06T14:15:49;31.67;;;22.23;;
54959;SDS011;40860;51.710;8.736;2024-03-06T14:19:54;31.65;;;22.80;;
54959;SDS011;40860;51.710;8.736;2024-03-06T14:23:59;33.50;;;23.27;;
54959;SDS011;40860;51.710;8.736;2024-03-06T14:28:05;35.63;;;22.50;;
54959;SDS011;40860;51.710;8.736;2024-03-06T14:32:08;31.67;;;22.17;;
54959;SDS011;40860;51.710;8.736;2024-03-06T14:36:11;33.13;;;23.40;;
54959;SDS011;40860;51.710;8.736;2024-03-06T14:40:15;30.30;;;23.25;;
54959;SDS011;40860;51.710;8.736;2024-03-06T14:44:18;29.92;;;22.20;;
54959;SDS011;40860;51.710;8.736;2024-03-06T14:48:22;31.52;;;23.17;;
54959;SDS011;40860;51.710;8.736;2024-03-06T14:52:28;31.42;;;21.13;;
54959;SDS011;40860;51.710;8.736;2024-03-06T14:56:32;30.10;;;21.02;;
54959;SDS011;40860;51.710;8.736;2024-03-06T15:00:35;35.03;;;23.10;;
54959;SDS011;40860;51.710;8.736;2024-03-06T15:04:38;31.27;;;22.42;;
54959;SDS011;40860;51.710;8.736;2024-03-06T15:08:41;31.55;;;19.85;;
54959;SDS011;40860;51.710;8.736;2024-03-06T15:12:47;27.67;;;20.70;;
54959;SDS011;40860;51.710;8.736;2024-03-06T15:16:50;29.80;;;21.55;;
54959;SDS011;40860;51.710;8.736;2024-03-06T15:20:53;30.83;;;21.85;;
54959;SDS011;40860;51.710;8.736;2024-03-06T15:24:56;31.55;;;22.02;;
54959;SDS011;40860;51.710;8.736;2024-03-06T15:29:00;32.25;;;21.95;;
54959;SDS011;40860;51.710;8.736;2024-03-06T15:33:06;31.05;;;22.15;;
54959;SDS011;40860;51.710;8.736;2024-03-06T15:37:10;30.33;;;22.45;;
54959;SDS011;40860;51.710;8.736;2024-03-06T15:41:13;34.60;;;23.15;;
54959;SDS011;40860;51.710;8.736;2024-03-06T15:45:17;34.85;;;22.65;;
54959;SDS011;40860;51.710;8.736;2024-03-06T15:49:21;28.00;;;20.08;;
54959;SDS011;40860;51.710;8.736;2024-03-06T15:53:26;24.48;;;18.38;;
54959;SDS011;40860;51.710;8.736;2024-03-06T15:57:30;28.25;;;20.17;;
54959;SDS011;40860;51.710;8.736;2024-03-06T16:01:35;26.15;;;18.83;;
54959;SDS011;40860;51.710;8.736;2024-03-06T16:05:38;26.10;;;18.05;;
54959;SDS011;40860;51.710;8.736;2024-03-06T16:09:41;27.80;;;20.17;;
54959;SDS011;40860;51.710;8.736;2024-03-06T16:13:44;27.80;;;19.77;;
54959;SDS011;40860;51.710;8.736;2024-03-06T16:17:49;26.13;;;18.58;;
54959;SDS011;40860;51.710;8.736;2024-03-06T16:21:52;27.15;;;19.23;;
54959;SDS011;40860;51.710;8.736;2024-03-06T16:25:55;25.98;;;17.60;;
54959;SDS011;40860;51.710;8.736;2024-03-06T16:29:58;26.98;;;17.65;;
54959;SDS011;40860;51.710;8.736;2024-03-06T16:34:05;24.13;;;17.70;;
54959;SDS011;40860;51.710;8.736;2024-03-06T16:38:08;24.67;;;17.80;;
54959;SDS011;40860;51.710;8.736;2024-03-06T16:42:11;23.98;;;16.55;;
54959;SDS011;40860;51.710;8.736;2024-03-06T16:46:16;36.35;;;23.65;;
54959;SDS011;40860;51.710;8.736;2024-03-06T16:50:20;38.83;;;24.08;;
54959;SDS011;40860;51.710;8.736;2024-03-06T16:54:23;39.03;;;26.25;;
54959;SDS011;40860;51.710;8.736;2024-03-06T16:58:26;39.78;;;25.67;;
54959;SDS011;40860;51.710;8.736;2024-03-06T17:02:28;37.88;;;25.20;;
54959;SDS011;40860;51.710;8.736;2024-03-06T17:06:33;42.55;;;27.17;;
54959;SDS011;40860;51.710;8.736;2024-03-06T17:10:36;40.28;;;26.38;;
54959;SDS011;40860;51.710;8.736;2024-03-06T17:14:41;41.50;;;26.38;;
54959;SDS011;40860;51.710;8.736;2024-03-06T17:18:44;38.10;;;27.75;;
54959;SDS011;40860;51.710;8.736;2024-03-06T17:22:48;41.60;;;27.48;;
54959;SDS011;40860;51.710;8.736;2024-03-06T17:26:52;42.63;;;27.63;;
54959;SDS011;40860;51.710;8.736;2024-03-06T17:30:55;42.85;;;28.38;;
54959;SDS011;40860;51.710;8.736;2024-03-06T17:34:58;44.75;;;29.70;;
54959;SDS011;40860;51.710;8.736;2024-03-06T17:39:06;42.65;;;29.33;;
54959;SDS011;40860;51.710;8.736;2024-03-06T17:43:11;47.05;;;29.77;;
54959;SDS011;40860;51.710;8.736;2024-03-06T17:47:17;43.63;;;29.55;;
54959;SDS011;40860;51.710;8.736;2024-03-06T17:51:26;43.45;;;28.55;;
54959;SDS011;40860;51.710;8.736;2024-03-06T17:55:33;45.13;;;30.35;;
54959;SDS011;40860;51.710;8.736;2024-03-06T17:59:41;46.92;;;30.70;;
54959;SDS011;40860;51.710;8.736;2024-03-06T18:03:43;49.55;;;29.98;;
54959;SDS011;40860;51.710;8.736;2024-03-06T18:07:47;42.55;;;28.13;;
54959;SDS011;40860;51.710;8.736;2024-03-06T18:11:52;45.13;;;29.23;;
54959;SDS011;40860;51.710;8.736;2024-03-06T18:15:56;37.65;;;26.40;;
54959;SDS011;40860;51.710;8.736;2024-03-06T18:20:00;37.40;;;25.65;;
54959;SDS011;40860;51.710;8.736;2024-03-06T18:24:04;36.75;;;25.67;;
54959;SDS011;40860;51.710;8.736;2024-03-06T18:28:14;34.35;;;23.05;;
54959;SDS011;40860;51.710;8.736;2024-03-06T18:32:17;36.50;;;24.83;;
54959;SDS011;40860;51.710;8.736;2024-03-06T18:36:21;34.80;;;24.95;;
54959;SDS011;40860;51.710;8.736;2024-03-06T18:40:26;35.88;;;24.23;;
54959;SDS011;40860;51.710;8.736;2024-03-06T18:44:32;32.97;;;23.40;;
54959;SDS011;40860;51.710;8.736;2024-03-06T18:48:35;32.80;;;24.00;;
54959;SDS011;40860;51.710;8.736;2024-03-06T18:52:38;35.88;;;24.33;;
54959;SDS011;40860;51.710;8.736;2024-03-06T18:56:41;36.50;;;23.63;;
54959;SDS011;40860;51.710;8.736;2024-03-06T19:00:45;35.78;;;24.88;;
54959;SDS011;40860;51.710;8.736;2024-03-06T19:04:49;34.92;;;23.42;;
54959;SDS011;40860;51.710;8.736;2024-03-06T19:08:51;34.83;;;25.42;;
54959;SDS011;40860;51.710;8.736;2024-03-06T19:12:54;34.90;;;23.88;;
54959;SDS011;40860;51.710;8.736;2024-03-06T19:16:59;34.63;;;25.13;;
54959;SDS011;40860;51.710;8.736;2024-03-06T19:21:02;33.55;;;23.88;;
54959;SDS011;40860;51.710;8.736;2024-03-06T19:25:06;33.85;;;23.52;;
54959;SDS011;40860;51.710;8.736;2024-03-06T19:29:10;39.67;;;24.10;;
54959;SDS011;40860;51.710;8.736;2024-03-06T19:33:15;34.70;;;24.50;;
54959;SDS011;40860;51.710;8.736;2024-03-06T19:37:18;33.42;;;23.77;;
54959;SDS011;40860;51.710;8.736;2024-03-06T19:41:25;37.42;;;24.67;;
54959;SDS011;40860;51.710;8.736;2024-03-06T19:45:28;36.17;;;24.17;;
54959;SDS011;40860;51.710;8.736;2024-03-06T19:49:33;36.75;;;24.42;;
54959;SDS011;40860;51.710;8.736;2024-03-06T19:53:36;34.80;;;24.48;;
54959;SDS011;40860;51.710;8.736;2024-03-06T19:57:39;38.90;;;23.75;;
54959;SDS011;40860;51.710;8.736;2024-03-06T20:01:42;33.35;;;23.33;;
54959;SDS011;40860;51.710;8.736;2024-03-06T20:05:46;34.75;;;24.15;;
54959;SDS011;40860;51.710;8.736;2024-03-06T20:09:49;34.80;;;22.70;;
54959;SDS011;40860;51.710;8.736;2024-03-06T20:13:56;39.55;;;23.60;;
54959;SDS011;40860;51.710;8.736;2024-03-06T20:17:59;33.08;;;22.38;;
54959;SDS011;40860;51.710;8.736;2024-03-06T20:22:04;31.65;;;23.20;;
54959;SDS011;40860;51.710;8.736;2024-03-06T20:26:07;37.22;;;23.65;;
54959;SDS011;40860;51.710;8.736;2024-03-06T20:30:11;39.40;;;23.30;;
54959;SDS011;40860;51.710;8.736;2024-03-06T20:34:20;33.80;;;22.38;;
54959;SDS011;40860;51.710;8.736;2024-03-06T20:38:24;34.75;;;23.08;;
54959;SDS011;40860;51.710;8.736;2024-03-06T20:42:27;36.35;;;22.67;;
54959;SDS011;40860;51.710;8.736;2024-03-06T20:46:31;32.55;;;22.63;;
54959;SDS011;40860;51.710;8.736;2024-03-06T20:50:35;32.90;;;22.58;;
54959;SDS011;40860;51.710;8.736;2024-03-06T20:54:41;33.10;;;22.90;;
54959;SDS011;40860;51.710;8.736;2024-03-06T20:58:44;29.17;;;21.90;;
54959;SDS011;40860;51.710;8.736;2024-03-06T21:02:47;30.90;;;21.30;;
54959;SDS011;40860;51.710;8.736;2024-03-06T21:06:51;32.50;;;22.17;;
54959;SDS011;40860;51.710;8.736;2024-03-06T21:10:55;30.15;;;21.40;;
54959;SDS011;40860;51.710;8.736;2024-03-06T21:15:02;31.55;;;21.80;;
54959;SDS011;40860;51.710;8.736;2024-03-06T21:19:09;29.80;;;21.05;;
54959;SDS011;40860;51.710;8.736;2024-03-06T21:23:15;30.05;;;21.38;;
54959;SDS011;40860;51.710;8.736;2024-03-06T21:27:19;30.85;;;22.33;;
54959;SDS011;40860;51.710;8.736;2024-03-06T21:31:23;31.38;;;21.95;;
54959;SDS011;40860;51.710;8.736;2024-03-06T21:35:27;33.15;;;21.73;;
54959;SDS011;40860;51.710;8.736;2024-03-06T21:39:30;29.13;;;20.55;;
54959;SDS011;40860;51.710;8.736;2024-03-06T21:43:34;29.55;;;21.23;;
54959;SDS011;40860;51.710;8.736;2024-03-06T21:47:37;33.30;;;22.25;;
54959;SDS011;40860;51.710;8.736;2024-03-06T21:51:40;33.45;;;22.30;;
54959;SDS011;40860;51.710;8.736;2024-03-06T21:55:43;32.55;;;22.20;;
54959;SDS011;40860;51.710;8.736;2024-03-06T21:59:47;30.60;;;22.40;;
54959;SDS011;40860;51.710;8.736;2024-03-06T22:03:53;34.30;;;23.63;;
54959;SDS011;40860;51.710;8.736;2024-03-06T22:07:56;33.70;;;23.00;;
54959;SDS011;40860;51.710;8.736;2024-03-06T22:11:59;31.70;;;22.23;;
54959;SDS011;40860;51.710;8.736;2024-03-06T22:16:05;32.85;;;22.60;;
54959;SDS011;40860;51.710;8.736;2024-03-06T22:20:08;34.80;;;23.38;;
54959;SDS011;40860;51.710;8.736;2024-03-06T22:24:12;31.85;;;23.08;;
54959;SDS011;40860;51.710;8.736;2024-03-06T22:28:25;30.38;;;22.10;;
54959;SDS011;40860;51.710;8.736;2024-03-06T22:32:29;33.65;;;22.95;;
54959;SDS011;40860;51.710;8.736;2024-03-06T22:36:32;35.65;;;23.33;;
54959;SDS011;40860;51.710;8.736;2024-03-06T22:40:35;36.42;;;23.17;;
54959;SDS011;40860;51.710;8.736;2024-03-06T22:44:41;33.35;;;22.88;;
54959;SDS011;40860;51.710;8.736;2024-03-06T22:48:49;35.85;;;22.35;;
54959;SDS011;40860;51.710;8.736;2024-03-06T22:52:52;31.52;;;22.45;;
54959;SDS011;40860;51.710;8.736;2024-03-06T22:56:55;30.55;;;22.20;;
54959;SDS011;40860;51.710;8.736;2024-03-06T23:00:58;31.23;;;21.67;;
54959;SDS011;40860;51.710;8.736;2024-03-06T23:05:03;30.08;;;22.38;;
54959;SDS011;40860;51.710;8.736;2024-03-06T23:09:10;32.00;;;21.65;;
54959;SDS011;40860;51.710;8.736;2024-03-06T23:13:14;32.75;;;22.35;;
54959;SDS011;40860;51.710;8.736;2024-03-06T23:17:17;31.00;;;21.33;;
54959;SDS011;40860;51.710;8.736;2024-03-06T23:21:21;34.40;;;21.50;;
54959;SDS011;40860;51.710;8.736;2024-03-06T23:25:28;28.85;;;20.38;;
54959;SDS011;40860;51.710;8.736;2024-03-06T23:29:31;29.88;;;20.50;;
54959;SDS011;40860;51.710;8.736;2024-03-06T23:33:35;28.83;;;20.48;;
54959;SDS011;40860;51.710;8.736;2024-03-06T23:37:44;27.95;;;20.02;;
54959;SDS011;40860;51.710;8.736;2024-03-06T23:41:49;27.15;;;20.40;;
54959;SDS011;40860;51.710;8.736;2024-03-06T23:45:53;30.75;;;20.55;;
54959;SDS011;40860;51.710;8.736;2024-03-06T23:49:57;30.05;;;20.73;;